sensor_id;sensor_type;location;lat;lon;timestamp;P1;durP1;ratioP1;P2;durP2;ratioP2
75912;SDS011;64592;52.168;21.040;2023-09-19T00:04:20;11.30;;;8.60;;
75912;SDS011;64592;52.168;21.040;2023-09-19T00:09:29;12.65;;;9.77;;
75912;SDS011;64592;52.168;21.040;2023-09-19T00:14:32;14.65;;;8.02;;
75912;SDS011;64592;52.168;21.040;2023-09-19T00:19:35;13.05;;;8.57;;
75912;SDS011;64592;52.168;21.040;2023-09-19T00:24:37;13.15;;;9.52;;
75912;SDS011;64592;52.168;21.040;2023-09-19T00:29:42;13.63;;;8.73;;
75912;SDS011;64592;52.168;21.040;2023-09-19T00:34:43;14.02;;;8.95;;
75912;SDS011;64592;52.168;21.040;2023-09-19T00:39:45;12.07;;;9.05;;
75912;SDS011;64592;52.168;21.040;2023-09-19T00:44:48;13.82;;;8.40;;
75912;SDS011;64592;52.168;21.040;2023-09-19T00:49:51;15.88;;;9.18;;
75912;SDS011;64592;52.168;21.040;2023-09-19T00:54:53;14.85;;;8.88;;
75912;SDS011;64592;52.168;21.040;2023-09-19T00:59:56;15.00;;;9.60;;
75912;SDS011;64592;52.168;21.040;2023-09-19T01:04:59;13.90;;;9.07;;
75912;SDS011;64592;52.168;21.040;2023-09-19T01:10:04;14.90;;;9.35;;
75912;SDS011;64592;52.168;21.040;2023-09-19T01:15:13;12.77;;;9.07;;
75912;SDS011;64592;52.168;21.040;2023-09-19T01:20:25;13.90;;;10.00;;
75912;SDS011;64592;52.168;21.040;2023-09-19T01:25:44;15.30;;;10.02;;
75912;SDS011;64592;52.168;21.040;2023-09-19T01:31:18;14.77;;;9.75;;
75912;SDS011;64592;52.168;21.040;2023-09-19T01:36:23;13.35;;;8.88;;
75912;SDS011;64592;52.168;21.040;2023-09-19T01:41:33;12.27;;;8.57;;
75912;SDS011;64592;52.168;21.040;2023-09-19T01:47:08;13.75;;;8.73;;
75912;SDS011;64592;52.168;21.040;2023-09-19T01:52:23;14.50;;;9.48;;
75912;SDS011;64592;52.168;21.040;2023-09-19T01:57:32;14.65;;;9.63;;
75912;SDS011;64592;52.168;21.040;2023-09-19T02:02:45;15.02;;;9.57;;
75912;SDS011;64592;52.168;21.040;2023-09-19T02:07:48;12.35;;;8.70;;
75912;SDS011;64592;52.168;21.040;2023-09-19T02:12:50;14.60;;;9.23;;
75912;SDS011;64592;52.168;21.040;2023-09-19T02:17:53;13.23;;;9.55;;
75912;SDS011;64592;52.168;21.040;2023-09-19T02:22:57;12.63;;;8.82;;
75912;SDS011;64592;52.168;21.040;2023-09-19T02:27:59;13.38;;;9.15;;
75912;SDS011;64592;52.168;21.040;2023-09-19T02:33:04;14.10;;;8.65;;
75912;SDS011;64592;52.168;21.040;2023-09-19T02:38:06;12.82;;;8.82;;
75912;SDS011;64592;52.168;21.040;2023-09-19T02:43:11;13.90;;;9.20;;
75912;SDS011;64592;52.168;21.040;2023-09-19T02:48:14;15.75;;;10.25;;
75912;SDS011;64592;52.168;21.040;2023-09-19T02:53:16;13.80;;;9.25;;
75912;SDS011;64592;52.168;21.040;2023-09-19T02:58:17;15.18;;;9.50;;
75912;SDS011;64592;52.168;21.040;2023-09-19T03:03:21;15.60;;;9.52;;
75912;SDS011;64592;52.168;21.040;2023-09-19T03:08:23;15.40;;;8.82;;
75912;SDS011;64592;52.168;21.040;2023-09-19T03:13:25;13.48;;;9.70;;
75912;SDS011;64592;52.168;21.040;2023-09-19T03:18:28;15.07;;;9.10;;
75912;SDS011;64592;52.168;21.040;2023-09-19T03:23:29;15.30;;;10.00;;
75912;SDS011;64592;52.168;21.040;2023-09-19T03:28:32;15.07;;;9.77;;
75912;SDS011;64592;52.168;21.040;2023-09-19T03:33:36;12.80;;;8.68;;
75912;SDS011;64592;52.168;21.040;2023-09-19T03:38:37;15.55;;;9.07;;
75912;SDS011;64592;52.168;21.040;2023-09-19T03:43:39;14.27;;;9.32;;
75912;SDS011;64592;52.168;21.040;2023-09-19T03:48:42;15.30;;;9.18;;
75912;SDS011;64592;52.168;21.040;2023-09-19T03:53:44;13.02;;;9.35;;
75912;SDS011;64592;52.168;21.040;2023-09-19T03:58:45;14.20;;;9.20;;
75912;SDS011;64592;52.168;21.040;2023-09-19T04:03:48;13.50;;;10.00;;
75912;SDS011;64592;52.168;21.040;2023-09-19T04:08:51;11.82;;;9.23;;
75912;SDS011;64592;52.168;21.040;2023-09-19T04:13:54;14.65;;;8.90;;
75912;SDS011;64592;52.168;21.040;2023-09-19T04:18:57;11.88;;;8.82;;
75912;SDS011;64592;52.168;21.040;2023-09-19T04:23:59;13.57;;;9.05;;
75912;SDS011;64592;52.168;21.040;2023-09-19T04:29:00;13.50;;;9.57;;
75912;SDS011;64592;52.168;21.040;2023-09-19T04:34:05;14.73;;;9.95;;
75912;SDS011;64592;52.168;21.040;2023-09-19T04:39:10;13.27;;;9.32;;
75912;SDS011;64592;52.168;21.040;2023-09-19T04:44:13;14.30;;;10.60;;
75912;SDS011;64592;52.168;21.040;2023-09-19T04:49:16;10.82;;;8.55;;
75912;SDS011;64592;52.168;21.040;2023-09-19T04:54:18;14.52;;;9.00;;
75912;SDS011;64592;52.168;21.040;2023-09-19T04:59:20;15.18;;;9.73;;
75912;SDS011;64592;52.168;21.040;2023-09-19T05:04:23;14.40;;;9.18;;
75912;SDS011;64592;52.168;21.040;2023-09-19T05:09:25;13.88;;;9.40;;
75912;SDS011;64592;52.168;21.040;2023-09-19T05:14:26;14.25;;;9.43;;
75912;SDS011;64592;52.168;21.040;2023-09-19T05:19:29;14.05;;;9.77;;
75912;SDS011;64592;52.168;21.040;2023-09-19T05:24:31;17.33;;;8.75;;
75912;SDS011;64592;52.168;21.040;2023-09-19T05:29:33;17.77;;;8.20;;
75912;SDS011;64592;52.168;21.040;2023-09-19T05:34:36;14.00;;;9.25;;
75912;SDS011;64592;52.168;21.040;2023-09-19T05:39:38;14.55;;;9.02;;
75912;SDS011;64592;52.168;21.040;2023-09-19T05:44:40;11.57;;;8.32;;
75912;SDS011;64592;52.168;21.040;2023-09-19T05:49:43;23.52;;;8.63;;
75912;SDS011;64592;52.168;21.040;2023-09-19T05:54:44;14.02;;;9.07;;
75912;SDS011;64592;52.168;21.040;2023-09-19T05:59:46;15.20;;;9.30;;
75912;SDS011;64592;52.168;21.040;2023-09-19T06:04:52;13.23;;;9.68;;
75912;SDS011;64592;52.168;21.040;2023-09-19T06:09:55;14.70;;;8.27;;
75912;SDS011;64592;52.168;21.040;2023-09-19T06:14:57;12.82;;;8.63;;
75912;SDS011;64592;52.168;21.040;2023-09-19T06:20:00;12.60;;;8.57;;
75912;SDS011;64592;52.168;21.040;2023-09-19T06:25:04;14.82;;;8.40;;
75912;SDS011;64592;52.168;21.040;2023-09-19T06:30:06;12.05;;;8.38;;
75912;SDS011;64592;52.168;21.040;2023-09-19T06:35:10;13.75;;;8.25;;
75912;SDS011;64592;52.168;21.040;2023-09-19T06:40:13;11.93;;;8.48;;
75912;SDS011;64592;52.168;21.040;2023-09-19T06:45:15;12.73;;;8.85;;
75912;SDS011;64592;52.168;21.040;2023-09-19T06:50:20;15.73;;;9.05;;
75912;SDS011;64592;52.168;21.040;2023-09-19T06:55:23;13.07;;;8.75;;
75912;SDS011;64592;52.168;21.040;2023-09-19T07:00:25;16.13;;;9.55;;
75912;SDS011;64592;52.168;21.040;2023-09-19T07:05:30;13.00;;;8.93;;
75912;SDS011;64592;52.168;21.040;2023-09-19T07:10:32;17.80;;;9.43;;
75912;SDS011;64592;52.168;21.040;2023-09-19T07:15:35;13.07;;;8.38;;
75912;SDS011;64592;52.168;21.040;2023-09-19T07:20:40;12.18;;;9.20;;
75912;SDS011;64592;52.168;21.040;2023-09-19T07:25:45;14.02;;;9.13;;
75912;SDS011;64592;52.168;21.040;2023-09-19T07:30:48;13.35;;;9.90;;
75912;SDS011;64592;52.168;21.040;2023-09-19T07:35:51;13.68;;;9.90;;
75912;SDS011;64592;52.168;21.040;2023-09-19T07:40:53;11.57;;;8.00;;
75912;SDS011;64592;52.168;21.040;2023-09-19T07:46:02;10.52;;;8.15;;
75912;SDS011;64592;52.168;21.040;2023-09-19T07:51:08;16.05;;;9.00;;
75912;SDS011;64592;52.168;21.040;2023-09-19T07:56:10;12.15;;;9.23;;
75912;SDS011;64592;52.168;21.040;2023-09-19T08:01:13;14.65;;;9.85;;
75912;SDS011;64592;52.168;21.040;2023-09-19T08:06:17;15.68;;;9.85;;
75912;SDS011;64592;52.168;21.040;2023-09-19T08:11:20;16.27;;;10.07;;
75912;SDS011;64592;52.168;21.040;2023-09-19T08:16:24;16.70;;;11.65;;
75912;SDS011;64592;52.168;21.040;2023-09-19T08:21:27;17.00;;;11.48;;
75912;SDS011;64592;52.168;21.040;2023-09-19T08:26:30;17.17;;;11.57;;
75912;SDS011;64592;52.168;21.040;2023-09-19T08:31:32;18.02;;;11.50;;
75912;SDS011;64592;52.168;21.040;2023-09-19T08:36:35;14.48;;;10.90;;
75912;SDS011;64592;52.168;21.040;2023-09-19T08:41:38;18.90;;;12.57;;
75912;SDS011;64592;52.168;21.040;2023-09-19T08:46:41;15.13;;;10.77;;
75912;SDS011;64592;52.168;21.040;2023-09-19T08:51:45;14.55;;;10.82;;
75912;SDS011;64592;52.168;21.040;2023-09-19T08:56:48;16.70;;;10.45;;
75912;SDS011;64592;52.168;21.040;2023-09-19T09:01:52;15.43;;;10.15;;
75912;SDS011;64592;52.168;21.040;2023-09-19T09:06:56;14.98;;;9.63;;
75912;SDS011;64592;52.168;21.040;2023-09-19T09:11:58;16.13;;;9.98;;
75912;SDS011;64592;52.168;21.040;2023-09-19T09:17:00;15.30;;;9.82;;
75912;SDS011;64592;52.168;21.040;2023-09-19T09:22:08;15.88;;;9.30;;
75912;SDS011;64592;52.168;21.040;2023-09-19T09:27:10;11.82;;;8.35;;
75912;SDS011;64592;52.168;21.040;2023-09-19T09:32:21;14.45;;;8.90;;
75912;SDS011;64592;52.168;21.040;2023-09-19T09:37:25;13.48;;;8.55;;
75912;SDS011;64592;52.168;21.040;2023-09-19T09:42:31;14.00;;;7.70;;
75912;SDS011;64592;52.168;21.040;2023-09-19T09:52:47;11.73;;;8.52;;
75912;SDS011;64592;52.168;21.040;2023-09-19T09:57:50;11.63;;;7.88;;
75912;SDS011;64592;52.168;21.040;2023-09-19T10:03:19;13.98;;;8.02;;
75912;SDS011;64592;52.168;21.040;2023-09-19T10:08:22;10.70;;;7.82;;
75912;SDS011;64592;52.168;21.040;2023-09-19T10:13:27;12.85;;;7.90;;
75912;SDS011;64592;52.168;21.040;2023-09-19T10:18:31;12.70;;;8.48;;
75912;SDS011;64592;52.168;21.040;2023-09-19T10:23:40;12.88;;;7.72;;
75912;SDS011;64592;52.168;21.040;2023-09-19T10:28:46;14.07;;;8.68;;
75912;SDS011;64592;52.168;21.040;2023-09-19T10:33:50;15.70;;;8.38;;
75912;SDS011;64592;52.168;21.040;2023-09-19T10:38:56;13.07;;;7.97;;
75912;SDS011;64592;52.168;21.040;2023-09-19T10:44:02;14.32;;;8.32;;
75912;SDS011;64592;52.168;21.040;2023-09-19T10:49:06;15.68;;;8.75;;
75912;SDS011;64592;52.168;21.040;2023-09-19T10:54:13;11.48;;;7.30;;
75912;SDS011;64592;52.168;21.040;2023-09-19T10:59:18;11.95;;;8.20;;
75912;SDS011;64592;52.168;21.040;2023-09-19T11:04:21;11.65;;;7.22;;
75912;SDS011;64592;52.168;21.040;2023-09-19T11:14:47;11.43;;;6.97;;
75912;SDS011;64592;52.168;21.040;2023-09-19T11:25:43;10.35;;;7.13;;
75912;SDS011;64592;52.168;21.040;2023-09-19T11:30:48;12.35;;;8.55;;
75912;SDS011;64592;52.168;21.040;2023-09-19T11:36:02;15.77;;;7.65;;
75912;SDS011;64592;52.168;21.040;2023-09-19T11:46:51;8.45;;;5.65;;
75912;SDS011;64592;52.168;21.040;2023-09-19T11:51:53;8.50;;;5.85;;
75912;SDS011;64592;52.168;21.040;2023-09-19T11:56:57;8.20;;;4.65;;
75912;SDS011;64592;52.168;21.040;2023-09-19T12:02:00;7.43;;;5.88;;
75912;SDS011;64592;52.168;21.040;2023-09-19T12:12:20;8.30;;;5.78;;
75912;SDS011;64592;52.168;21.040;2023-09-19T12:17:34;9.48;;;5.93;;
75912;SDS011;64592;52.168;21.040;2023-09-19T12:22:39;6.93;;;5.22;;
75912;SDS011;64592;52.168;21.040;2023-09-19T12:27:43;8.80;;;6.18;;
75912;SDS011;64592;52.168;21.040;2023-09-19T12:32:46;9.95;;;6.22;;
75912;SDS011;64592;52.168;21.040;2023-09-19T12:37:51;9.40;;;5.63;;
75912;SDS011;64592;52.168;21.040;2023-09-19T12:42:56;11.50;;;5.57;;
75912;SDS011;64592;52.168;21.040;2023-09-19T12:48:17;10.65;;;5.63;;
75912;SDS011;64592;52.168;21.040;2023-09-19T12:53:24;9.50;;;5.43;;
75912;SDS011;64592;52.168;21.040;2023-09-19T12:58:30;9.38;;;5.10;;
75912;SDS011;64592;52.168;21.040;2023-09-19T13:03:34;7.90;;;5.40;;
75912;SDS011;64592;52.168;21.040;2023-09-19T13:08:39;10.45;;;5.70;;
75912;SDS011;64592;52.168;21.040;2023-09-19T13:13:45;8.60;;;6.38;;
75912;SDS011;64592;52.168;21.040;2023-09-19T13:18:49;9.60;;;5.88;;
75912;SDS011;64592;52.168;21.040;2023-09-19T13:23:53;11.52;;;6.25;;
75912;SDS011;64592;52.168;21.040;2023-09-19T13:29:00;8.57;;;5.97;;
75912;SDS011;64592;52.168;21.040;2023-09-19T13:34:02;9.95;;;5.82;;
75912;SDS011;64592;52.168;21.040;2023-09-19T13:39:04;10.70;;;6.55;;
75912;SDS011;64592;52.168;21.040;2023-09-19T13:44:10;8.45;;;5.95;;
75912;SDS011;64592;52.168;21.040;2023-09-19T13:49:12;10.77;;;6.55;;
75912;SDS011;64592;52.168;21.040;2023-09-19T13:54:13;7.60;;;5.90;;
75912;SDS011;64592;52.168;21.040;2023-09-19T13:59:16;8.40;;;6.38;;
75912;SDS011;64592;52.168;21.040;2023-09-19T14:04:18;11.68;;;7.90;;
75912;SDS011;64592;52.168;21.040;2023-09-19T14:09:21;11.35;;;6.90;;
75912;SDS011;64592;52.168;21.040;2023-09-19T14:14:24;11.35;;;7.22;;
75912;SDS011;64592;52.168;21.040;2023-09-19T14:19:26;11.18;;;8.15;;
75912;SDS011;64592;52.168;21.040;2023-09-19T14:24:28;12.73;;;7.90;;
75912;SDS011;64592;52.168;21.040;2023-09-19T14:29:31;11.82;;;7.68;;
75912;SDS011;64592;52.168;21.040;2023-09-19T14:34:33;14.20;;;8.75;;
75912;SDS011;64592;52.168;21.040;2023-09-19T14:39:36;10.43;;;7.18;;
75912;SDS011;64592;52.168;21.040;2023-09-19T14:44:41;9.52;;;7.13;;
75912;SDS011;64592;52.168;21.040;2023-09-19T14:49:42;10.30;;;5.97;;
75912;SDS011;64592;52.168;21.040;2023-09-19T14:54:44;8.20;;;6.15;;
75912;SDS011;64592;52.168;21.040;2023-09-19T14:59:47;7.55;;;4.88;;
75912;SDS011;64592;52.168;21.040;2023-09-19T15:04:49;7.75;;;5.97;;
75912;SDS011;64592;52.168;21.040;2023-09-19T15:09:51;7.22;;;5.43;;
75912;SDS011;64592;52.168;21.040;2023-09-19T15:14:54;7.25;;;5.53;;
75912;SDS011;64592;52.168;21.040;2023-09-19T15:19:56;6.43;;;5.18;;
75912;SDS011;64592;52.168;21.040;2023-09-19T15:24:58;11.05;;;5.43;;
75912;SDS011;64592;52.168;21.040;2023-09-19T15:30:01;7.50;;;5.82;;
75912;SDS011;64592;52.168;21.040;2023-09-19T15:35:05;10.85;;;6.07;;
75912;SDS011;64592;52.168;21.040;2023-09-19T15:40:10;9.77;;;5.68;;
75912;SDS011;64592;52.168;21.040;2023-09-19T15:45:14;6.80;;;5.15;;
75912;SDS011;64592;52.168;21.040;2023-09-19T15:50:16;7.55;;;6.05;;
75912;SDS011;64592;52.168;21.040;2023-09-19T15:55:17;8.48;;;5.82;;
75912;SDS011;64592;52.168;21.040;2023-09-19T16:00:21;6.97;;;5.65;;
75912;SDS011;64592;52.168;21.040;2023-09-19T16:05:22;6.93;;;5.50;;
75912;SDS011;64592;52.168;21.040;2023-09-19T16:10:24;9.55;;;5.93;;
75912;SDS011;64592;52.168;21.040;2023-09-19T16:15:27;7.20;;;5.20;;
75912;SDS011;64592;52.168;21.040;2023-09-19T16:20:30;8.68;;;5.72;;
75912;SDS011;64592;52.168;21.040;2023-09-19T16:25:33;8.52;;;5.35;;
75912;SDS011;64592;52.168;21.040;2023-09-19T16:30:36;8.50;;;5.57;;
75912;SDS011;64592;52.168;21.040;2023-09-19T16:35:38;7.18;;;5.53;;
75912;SDS011;64592;52.168;21.040;2023-09-19T16:40:40;8.55;;;5.32;;
75912;SDS011;64592;52.168;21.040;2023-09-19T16:45:54;6.00;;;5.28;;
75912;SDS011;64592;52.168;21.040;2023-09-19T16:50:59;7.22;;;5.88;;
75912;SDS011;64592;52.168;21.040;2023-09-19T16:56:03;8.50;;;5.90;;
75912;SDS011;64592;52.168;21.040;2023-09-19T17:01:11;7.32;;;5.50;;
75912;SDS011;64592;52.168;21.040;2023-09-19T17:06:14;8.05;;;5.72;;
75912;SDS011;64592;52.168;21.040;2023-09-19T17:11:16;7.53;;;5.97;;
75912;SDS011;64592;52.168;21.040;2023-09-19T17:16:21;8.73;;;6.00;;
75912;SDS011;64592;52.168;21.040;2023-09-19T17:21:24;9.20;;;5.43;;
75912;SDS011;64592;52.168;21.040;2023-09-19T17:26:26;8.00;;;6.00;;
75912;SDS011;64592;52.168;21.040;2023-09-19T17:31:29;6.85;;;5.95;;
75912;SDS011;64592;52.168;21.040;2023-09-19T17:36:31;6.50;;;4.90;;
75912;SDS011;64592;52.168;21.040;2023-09-19T17:41:35;7.88;;;4.63;;
75912;SDS011;64592;52.168;21.040;2023-09-19T17:46:38;7.20;;;4.80;;
75912;SDS011;64592;52.168;21.040;2023-09-19T17:51:40;6.35;;;4.70;;
75912;SDS011;64592;52.168;21.040;2023-09-19T17:56:42;7.07;;;5.32;;
75912;SDS011;64592;52.168;21.040;2023-09-19T18:01:46;7.85;;;4.97;;
75912;SDS011;64592;52.168;21.040;2023-09-19T18:06:49;5.22;;;3.85;;
75912;SDS011;64592;52.168;21.040;2023-09-19T18:11:51;8.50;;;3.60;;
75912;SDS011;64592;52.168;21.040;2023-09-19T18:16:54;15.98;;;4.18;;
75912;SDS011;64592;52.168;21.040;2023-09-19T18:21:57;6.70;;;3.60;;
75912;SDS011;64592;52.168;21.040;2023-09-19T18:27:03;7.13;;;3.45;;
75912;SDS011;64592;52.168;21.040;2023-09-19T18:32:06;6.25;;;3.55;;
75912;SDS011;64592;52.168;21.040;2023-09-19T18:37:08;7.20;;;4.10;;
75912;SDS011;64592;52.168;21.040;2023-09-19T18:42:11;6.63;;;3.63;;
75912;SDS011;64592;52.168;21.040;2023-09-19T18:47:14;6.15;;;3.70;;
75912;SDS011;64592;52.168;21.040;2023-09-19T18:52:20;7.90;;;3.88;;
75912;SDS011;64592;52.168;21.040;2023-09-19T18:57:21;7.93;;;3.90;;
75912;SDS011;64592;52.168;21.040;2023-09-19T19:02:26;5.28;;;3.60;;
75912;SDS011;64592;52.168;21.040;2023-09-19T19:07:28;6.68;;;3.60;;
75912;SDS011;64592;52.168;21.040;2023-09-19T19:12:29;5.53;;;3.53;;
75912;SDS011;64592;52.168;21.040;2023-09-19T19:17:34;4.97;;;3.47;;
75912;SDS011;64592;52.168;21.040;2023-09-19T19:22:37;4.57;;;3.50;;
75912;SDS011;64592;52.168;21.040;2023-09-19T19:27:40;9.10;;;4.38;;
75912;SDS011;64592;52.168;21.040;2023-09-19T19:32:44;8.82;;;3.50;;
75912;SDS011;64592;52.168;21.040;2023-09-19T19:37:46;7.15;;;4.40;;
75912;SDS011;64592;52.168;21.040;2023-09-19T19:42:48;9.35;;;4.40;;
75912;SDS011;64592;52.168;21.040;2023-09-19T19:47:51;8.57;;;4.00;;
75912;SDS011;64592;52.168;21.040;2023-09-19T19:52:53;6.15;;;4.00;;
75912;SDS011;64592;52.168;21.040;2023-09-19T19:57:56;8.93;;;3.70;;
75912;SDS011;64592;52.168;21.040;2023-09-19T20:03:01;5.38;;;4.03;;
75912;SDS011;64592;52.168;21.040;2023-09-19T20:08:04;5.45;;;4.10;;
75912;SDS011;64592;52.168;21.040;2023-09-19T20:13:05;6.93;;;4.75;;
75912;SDS011;64592;52.168;21.040;2023-09-19T20:18:09;6.13;;;4.00;;
75912;SDS011;64592;52.168;21.040;2023-09-19T20:23:12;7.50;;;4.70;;
75912;SDS011;64592;52.168;21.040;2023-09-19T20:28:14;9.63;;;5.45;;
75912;SDS011;64592;52.168;21.040;2023-09-19T20:33:19;6.85;;;4.53;;
75912;SDS011;64592;52.168;21.040;2023-09-19T20:38:24;10.05;;;4.97;;
75912;SDS011;64592;52.168;21.040;2023-09-19T20:43:26;7.50;;;4.57;;
75912;SDS011;64592;52.168;21.040;2023-09-19T20:48:29;8.35;;;4.75;;
75912;SDS011;64592;52.168;21.040;2023-09-19T20:53:31;7.97;;;5.40;;
75912;SDS011;64592;52.168;21.040;2023-09-19T20:58:35;10.95;;;5.20;;
75912;SDS011;64592;52.168;21.040;2023-09-19T21:03:39;8.27;;;6.30;;
75912;SDS011;64592;52.168;21.040;2023-09-19T21:08:43;8.10;;;4.90;;
75912;SDS011;64592;52.168;21.040;2023-09-19T21:13:46;7.55;;;4.90;;
75912;SDS011;64592;52.168;21.040;2023-09-19T21:18:50;7.43;;;4.82;;
75912;SDS011;64592;52.168;21.040;2023-09-19T21:23:52;9.32;;;4.53;;
75912;SDS011;64592;52.168;21.040;2023-09-19T21:28:54;8.75;;;5.03;;
75912;SDS011;64592;52.168;21.040;2023-09-19T21:33:58;10.15;;;4.45;;
75912;SDS011;64592;52.168;21.040;2023-09-19T21:39:00;13.40;;;4.85;;
75912;SDS011;64592;52.168;21.040;2023-09-19T21:44:03;10.40;;;4.55;;
75912;SDS011;64592;52.168;21.040;2023-09-19T21:49:07;10.45;;;4.72;;
75912;SDS011;64592;52.168;21.040;2023-09-19T21:54:08;9.18;;;5.00;;
75912;SDS011;64592;52.168;21.040;2023-09-19T21:59:10;11.07;;;5.10;;
75912;SDS011;64592;52.168;21.040;2023-09-19T22:04:13;9.32;;;4.32;;
75912;SDS011;64592;52.168;21.040;2023-09-19T22:09:17;5.78;;;4.32;;
75912;SDS011;64592;52.168;21.040;2023-09-19T22:14:19;7.57;;;4.55;;
75912;SDS011;64592;52.168;21.040;2023-09-19T22:19:30;10.65;;;5.35;;
75912;SDS011;64592;52.168;21.040;2023-09-19T22:24:33;10.27;;;5.53;;
75912;SDS011;64592;52.168;21.040;2023-09-19T22:29:35;8.20;;;4.63;;
75912;SDS011;64592;52.168;21.040;2023-09-19T22:34:38;8.55;;;3.92;;
75912;SDS011;64592;52.168;21.040;2023-09-19T22:39:41;7.25;;;4.18;;
75912;SDS011;64592;52.168;21.040;2023-09-19T22:44:42;9.13;;;5.20;;
75912;SDS011;64592;52.168;21.040;2023-09-19T22:49:46;6.88;;;4.00;;
75912;SDS011;64592;52.168;21.040;2023-09-19T22:54:48;6.55;;;4.00;;
75912;SDS011;64592;52.168;21.040;2023-09-19T22:59:50;6.07;;;4.03;;
75912;SDS011;64592;52.168;21.040;2023-09-19T23:04:53;5.90;;;3.50;;
75912;SDS011;64592;52.168;21.040;2023-09-19T23:10:00;8.10;;;3.85;;
75912;SDS011;64592;52.168;21.040;2023-09-19T23:15:05;6.00;;;3.45;;
75912;SDS011;64592;52.168;21.040;2023-09-19T23:20:12;7.43;;;4.20;;
75912;SDS011;64592;52.168;21.040;2023-09-19T23:25:25;7.07;;;3.83;;
75912;SDS011;64592;52.168;21.040;2023-09-19T23:30:28;7.32;;;4.07;;
75912;SDS011;64592;52.168;21.040;2023-09-19T23:35:31;5.43;;;3.85;;
75912;SDS011;64592;52.168;21.040;2023-09-19T23:40:33;7.07;;;3.72;;
75912;SDS011;64592;52.168;21.040;2023-09-19T23:45:37;7.28;;;3.92;;
75912;SDS011;64592;52.168;21.040;2023-09-19T23:50:41;9.45;;;4.28;;
75912;SDS011;64592;52.168;21.040;2023-09-19T23:55:43;7.75;;;4.07;;
